Time;durP1;ratioP1;P1;durP2;ratioP2;P2;SDS_P1;SDS_P2;PMS_P1;PMS_P2;Temp;Humidity;BMP_temperature;BMP_pressure;BME280_temperature;BME280_humidity;BME280_pressure;Samples;Min_cycle;Max_cycle;Signal;HPM_P1;HPM_P2
2022/07/08 00:00:05;;;;;;;5.35;2.88;;;14.40;99.90;;;;;;5026519;28;20574;-76
2022/07/08 00:02:31;;;;;;;8.95;3.28;;;14.40;99.90;;;;;;5012261;28;20104;-77
2022/07/08 00:04:56;;;;;;;3.17;2.83;;;14.40;99.90;;;;;;5012355;28;20106;-76
2022/07/08 00:07:22;;;;;;;6.00;2.92;;;14.40;99.90;;;;;;5017276;28;20036;-77
2022/07/08 00:09:47;;;;;;;7.47;3.33;;;14.40;99.90;;;;;;5018855;28;20400;-77
2022/07/08 00:12:13;;;;;;;7.88;3.05;;;14.40;99.90;;;;;;5012383;28;20505;-77
2022/07/08 00:14:38;;;;;;;7.40;3.03;;;14.40;99.90;;;;;;5006945;28;20022;-77
2022/07/08 00:17:04;;;;;;;7.20;2.80;;;14.40;99.90;;;;;;5026112;28;20129;-77
2022/07/08 00:19:30;;;;;;;7.95;2.92;;;14.40;99.90;;;;;;5012274;28;20034;-77
2022/07/08 00:21:55;;;;;;;4.97;3.22;;;14.40;99.90;;;;;;5011628;28;20034;-77
2022/07/08 00:24:21;;;;;;;4.97;2.88;;;14.40;99.90;;;;;;5016516;28;20466;-77
2022/07/08 00:26:46;;;;;;;4.88;2.72;;;14.40;99.90;;;;;;5020286;28;20033;-77
2022/07/08 00:29:12;;;;;;;5.25;2.90;;;14.40;99.90;;;;;;5025468;28;20033;-77
2022/07/08 00:31:38;;;;;;;5.75;3.00;;;14.40;99.90;;;;;;5020992;28;20417;-77
2022/07/08 00:34:04;;;;;;;5.82;3.45;;;14.50;99.90;;;;;;5016597;28;20030;-77
2022/07/08 00:36:30;;;;;;;7.00;3.03;;;14.40;99.90;;;;;;5011847;28;20021;-78
2022/07/08 00:38:55;;;;;;;6.03;3.30;;;14.40;99.90;;;;;;5011991;28;20073;-77
2022/07/08 00:41:21;;;;;;;8.98;3.30;;;14.40;99.90;;;;;;5012323;28;20090;-77
2022/07/08 00:43:47;;;;;;;5.57;2.88;;;14.50;99.90;;;;;;5012290;28;20037;-77
2022/07/08 00:46:15;;;;;;;8.38;3.67;;;14.50;99.90;;;;;;5011562;28;20522;-77
2022/07/08 00:48:41;;;;;;;8.32;3.28;;;14.50;99.90;;;;;;5011752;28;20053;-77
2022/07/08 00:51:09;;;;;;;9.70;4.25;;;14.40;99.90;;;;;;5011617;28;20118;-78
2022/07/08 00:53:37;;;;;;;6.43;3.35;;;14.50;99.90;;;;;;5011563;28;20034;-77
2022/07/08 00:56:03;;;;;;;8.30;3.50;;;14.40;99.90;;;;;;5011459;28;20056;-77
2022/07/08 00:58:31;;;;;;;6.03;3.13;;;14.40;99.90;;;;;;5015076;28;20034;-77
2022/07/08 01:00:56;;;;;;;3.78;3.08;;;14.40;99.90;;;;;;5027156;28;20029;-77
2022/07/08 01:03:22;;;;;;;6.35;3.42;;;14.40;99.90;;;;;;5016520;28;20032;-77
2022/07/08 01:05:48;;;;;;;4.43;3.10;;;14.40;99.90;;;;;;5015059;28;20048;-77
2022/07/08 01:08:14;;;;;;;9.43;3.78;;;14.40;99.90;;;;;;5027116;28;20038;-77
2022/07/08 01:10:40;;;;;;;7.38;3.78;;;14.40;99.90;;;;;;5016172;28;20054;-77
2022/07/08 01:13:06;;;;;;;6.43;3.92;;;14.40;99.90;;;;;;5023339;28;20731;-77
2022/07/08 01:15:33;;;;;;;5.10;3.72;;;14.40;99.90;;;;;;5010062;28;20042;-77
2022/07/08 01:17:58;;;;;;;8.18;3.28;;;14.40;99.90;;;;;;5013614;28;20064;-77
2022/07/08 01:20:24;;;;;;;5.85;3.20;;;14.30;99.90;;;;;;5014397;28;20030;-77
2022/07/08 01:22:49;;;;;;;5.80;3.30;;;14.40;99.90;;;;;;5014546;28;20097;-77
2022/07/08 01:25:15;;;;;;;10.48;2.92;;;14.40;99.90;;;;;;5014289;28;20076;-78
2022/07/08 01:27:41;;;;;;;9.52;3.20;;;14.30;99.90;;;;;;5014628;28;20032;-77
2022/07/08 01:30:08;;;;;;;7.28;3.33;;;14.40;99.90;;;;;;5014261;28;20081;-77
2022/07/08 01:32:36;;;;;;;5.18;3.22;;;14.40;99.90;;;;;;5028431;28;20041;-78
2022/07/08 01:35:02;;;;;;;4.28;2.90;;;14.30;99.90;;;;;;5014750;28;20122;-77
2022/07/08 01:37:28;;;;;;;5.10;2.97;;;14.40;99.90;;;;;;5014288;28;20022;-77
2022/07/08 01:39:53;;;;;;;7.47;3.80;;;14.40;99.90;;;;;;5014142;28;20030;-77
2022/07/08 01:42:19;;;;;;;6.30;3.25;;;14.40;99.90;;;;;;5013784;28;20041;-78
2022/07/08 01:44:44;;;;;;;6.13;3.30;;;14.40;99.90;;;;;;5027605;28;20021;-77
2022/07/08 01:47:10;;;;;;;6.43;3.38;;;14.40;99.90;;;;;;5013663;28;20104;-77
2022/07/08 01:49:36;;;;;;;5.32;3.47;;;14.40;99.90;;;;;;5014233;28;20040;-78
2022/07/08 01:52:01;;;;;;;7.13;3.63;;;14.30;99.90;;;;;;5014648;28;20037;-77
2022/07/08 01:54:27;;;;;;;4.50;3.30;;;14.30;99.90;;;;;;5013712;28;20022;-77
2022/07/08 01:57:13;;;;;;;4.53;3.15;;;14.30;99.90;;;;;;5020608;28;20100;-77
2022/07/08 01:59:38;;;;;;;4.82;3.53;;;14.30;99.90;;;;;;5017879;28;20046;-77
2022/07/08 02:02:04;;;;;;;5.50;2.97;;;14.30;99.90;;;;;;5014480;28;20052;-78
2022/07/08 02:04:30;;;;;;;5.00;3.20;;;14.30;99.90;;;;;;5014734;28;20032;-77
2022/07/08 02:06:55;;;;;;;7.15;3.65;;;14.30;99.90;;;;;;5029419;28;20033;-78
2022/07/08 02:09:21;;;;;;;7.15;3.47;;;14.30;99.90;;;;;;5032981;28;20087;-77
2022/07/08 02:14:32;;;;;;;3.47;3.05;;;14.30;99.90;;;;;;5005387;28;20037;-77
2022/07/08 02:16:57;;;;;;;4.60;2.63;;;14.30;99.90;;;;;;5011910;28;20801;-77
2022/07/08 02:19:23;;;;;;;4.03;1.80;;;14.30;99.90;;;;;;5013157;28;20068;-77
2022/07/08 02:21:48;;;;;;;5.10;1.65;;;14.40;99.90;;;;;;5013194;28;20109;-77
2022/07/08 02:24:14;;;;;;;4.97;1.92;;;14.40;99.90;;;;;;5012893;28;20426;-76
2022/07/08 02:26:40;;;;;;;6.40;2.25;;;14.40;99.90;;;;;;5013366;28;20634;-77
2022/07/08 02:29:05;;;;;;;7.07;2.80;;;14.30;99.90;;;;;;5012900;28;20057;-77
2022/07/08 02:31:31;;;;;;;6.45;2.13;;;14.30;99.90;;;;;;5012762;28;20383;-77
2022/07/08 02:33:57;;;;;;;5.20;2.20;;;14.20;99.90;;;;;;5027414;28;20494;-77
2022/07/08 02:36:22;;;;;;;5.68;2.40;;;14.20;99.90;;;;;;5033059;28;20516;-77
2022/07/08 02:38:48;;;;;;;6.13;2.20;;;14.10;99.90;;;;;;5019048;28;20068;-77
2022/07/08 02:41:14;;;;;;;5.65;2.10;;;14.10;99.90;;;;;;5012763;28;20356;-77
2022/07/08 02:43:39;;;;;;;7.47;2.17;;;14.00;99.90;;;;;;5012916;28;20041;-77
2022/07/08 02:46:05;;;;;;;9.88;2.33;;;13.90;99.90;;;;;;5012741;28;20123;-77
2022/07/08 02:48:30;;;;;;;5.25;2.17;;;13.80;99.90;;;;;;5011772;28;20192;-77
2022/07/08 02:50:57;;;;;;;6.57;2.30;;;13.80;99.90;;;;;;5012716;28;20135;-77
2022/07/08 02:53:23;;;;;;;10.35;1.60;;;13.70;99.90;;;;;;5030897;28;20495;-77
2022/07/08 02:55:48;;;;;;;7.60;1.95;;;13.70;99.90;;;;;;5010846;28;20037;-77
2022/07/08 02:58:14;;;;;;;8.38;2.10;;;13.70;99.90;;;;;;5012583;28;20037;-77
2022/07/08 03:00:42;;;;;;;9.55;2.13;;;13.70;99.90;;;;;;5012523;28;20026;-77
2022/07/08 03:03:07;;;;;;;5.72;2.25;;;13.70;99.90;;;;;;5012682;28;20029;-77
2022/07/08 03:05:33;;;;;;;6.97;1.77;;;13.60;99.90;;;;;;5010916;28;20527;-77
2022/07/08 03:07:58;;;;;;;7.55;1.70;;;13.60;99.90;;;;;;5026597;28;20030;-77
2022/07/08 03:10:24;;;;;;;6.53;1.48;;;13.50;99.90;;;;;;5011397;28;20030;-77
2022/07/08 03:12:50;;;;;;;7.30;2.08;;;13.50;99.90;;;;;;5013690;28;20096;-77
2022/07/08 03:15:15;;;;;;;7.82;1.90;;;13.40;99.90;;;;;;5013006;28;20067;-77
2022/07/08 03:17:41;;;;;;;5.45;1.77;;;13.40;99.90;;;;;;5012731;28;20037;-77
2022/07/08 03:20:07;;;;;;;9.48;2.00;;;13.30;99.90;;;;;;5012378;28;20471;-78
2022/07/08 03:22:34;;;;;;;12.10;2.03;;;13.30;99.90;;;;;;5012486;28;20022;-78
2022/07/08 03:25:00;;;;;;;10.70;1.80;;;13.20;99.90;;;;;;5012128;28;20046;-77
2022/07/08 03:27:25;;;;;;;8.63;1.88;;;13.30;99.90;;;;;;5010848;28;20390;-76
2022/07/08 03:29:51;;;;;;;11.02;1.50;;;13.20;99.90;;;;;;5026435;28;20033;-77
2022/07/08 03:32:16;;;;;;;6.40;1.77;;;13.10;99.90;;;;;;5012544;28;20030;-77
2022/07/08 03:34:42;;;;;;;4.82;1.45;;;13.10;99.90;;;;;;5012142;28;20038;-77
2022/07/08 03:37:07;;;;;;;8.30;1.70;;;13.10;99.90;;;;;;5011959;28;20152;-77
2022/07/08 03:39:33;;;;;;;8.50;1.60;;;13.00;99.90;;;;;;5017850;28;20034;-77
2022/07/08 03:41:58;;;;;;;4.95;1.45;;;13.00;99.90;;;;;;5012450;28;20494;-77
2022/07/08 03:44:24;;;;;;;5.63;1.50;;;13.00;99.90;;;;;;5024248;28;20034;-77
2022/07/08 03:46:50;;;;;;;10.48;1.92;;;12.90;99.90;;;;;;5012164;28;20026;-77
2022/07/08 03:49:15;;;;;;;6.55;1.70;;;13.00;99.90;;;;;;5012303;28;20029;-77
2022/07/08 03:51:41;;;;;;;6.68;1.52;;;12.90;99.90;;;;;;5012004;28;20037;-77
2022/07/08 03:54:06;;;;;;;8.02;1.77;;;13.00;99.90;;;;;;5011721;28;20038;-77
2022/07/08 03:56:32;;;;;;;7.88;1.75;;;12.90;99.90;;;;;;5012249;28;20112;-76
2022/07/08 03:58:57;;;;;;;9.02;1.75;;;12.90;99.90;;;;;;5011742;28;20030;-77
2022/07/08 04:01:23;;;;;;;4.68;1.50;;;12.90;99.90;;;;;;5011694;28;20432;-77
2022/07/08 04:03:48;;;;;;;3.95;1.30;;;12.90;99.90;;;;;;5012819;28;20398;-76
2022/07/08 04:06:15;;;;;;;10.15;1.85;;;12.90;99.90;;;;;;5011459;28;20028;-76
2022/07/08 04:08:42;;;;;;;9.52;1.85;;;12.90;99.90;;;;;;5023332;28;20025;-77
2022/07/08 04:11:07;;;;;;;6.72;1.58;;;12.90;99.90;;;;;;5014257;28;20390;-77
2022/07/08 04:13:33;;;;;;;8.52;1.90;;;12.90;99.90;;;;;;5009683;28;20031;-77
2022/07/08 04:15:58;;;;;;;7.25;1.50;;;12.80;99.90;;;;;;5010805;28;20513;-77
2022/07/08 04:18:27;;;;;;;8.02;1.80;;;12.80;99.90;;;;;;5016809;28;20048;-77
2022/07/08 04:20:52;;;;;;;6.80;1.70;;;12.90;99.90;;;;;;5012656;28;20042;-77
2022/07/08 04:23:18;;;;;;;7.93;1.77;;;12.80;99.90;;;;;;5010080;28;20025;-77
2022/07/08 04:25:44;;;;;;;6.85;1.50;;;12.90;99.90;;;;;;5008575;28;20498;-76
2022/07/08 04:28:09;;;;;;;10.82;1.80;;;12.90;99.90;;;;;;5006870;28;20018;-77
2022/07/08 04:30:35;;;;;;;6.38;1.60;;;13.00;99.90;;;;;;5012975;28;20175;-77
2022/07/08 04:33:01;;;;;;;7.57;1.70;;;13.00;99.90;;;;;;5015412;28;20528;-77
2022/07/08 04:35:26;;;;;;;4.80;1.50;;;13.00;99.90;;;;;;5015680;28;20108;-77
2022/07/08 04:37:52;;;;;;;6.78;2.20;;;12.90;99.90;;;;;;5014236;28;20168;-76
2022/07/08 04:40:17;;;;;;;4.47;1.52;;;13.00;99.90;;;;;;5013840;28;20033;-77
2022/07/08 04:42:43;;;;;;;11.38;2.13;;;13.00;99.90;;;;;;5012912;28;20038;-77
2022/07/08 04:45:09;;;;;;;7.18;2.13;;;13.00;99.90;;;;;;5011750;28;20034;-77
2022/07/08 04:47:34;;;;;;;9.32;1.77;;;13.00;99.90;;;;;;5013063;28;20466;-78
2022/07/08 04:50:00;;;;;;;9.38;1.73;;;13.00;99.90;;;;;;5010600;28;20092;-78
2022/07/08 04:52:25;;;;;;;6.82;2.10;;;13.00;99.90;;;;;;5012090;28;20097;-78
2022/07/08 04:54:51;;;;;;;10.05;1.95;;;13.00;99.90;;;;;;5010546;28;20025;-78
2022/07/08 04:57:16;;;;;;;8.57;1.85;;;13.10;99.90;;;;;;5020336;28;20555;-78
2022/07/08 04:59:42;;;;;;;7.40;1.60;;;13.20;99.90;;;;;;5011304;28;20490;-78
2022/07/08 05:02:08;;;;;;;9.15;2.10;;;13.30;99.90;;;;;;5013538;28;20487;-78
2022/07/08 05:04:33;;;;;;;9.70;2.35;;;13.40;99.90;;;;;;5012799;28;20018;-78
2022/07/08 05:07:02;;;;;;;5.03;1.63;;;13.40;99.90;;;;;;5016517;28;20018;-78
2022/07/08 05:09:31;;;;;;;9.27;1.70;;;13.50;99.90;;;;;;5013511;28;20472;-78
2022/07/08 05:12:02;;;;;;;7.47;1.60;;;13.60;99.90;;;;;;5007088;28;20026;-78
2022/07/08 05:14:32;;;;;;;6.38;1.70;;;13.60;99.90;;;;;;5007507;28;20380;-78
2022/07/08 05:16:58;;;;;;;9.35;1.85;;;13.50;99.90;;;;;;5010420;28;20116;-78
2022/07/08 05:19:26;;;;;;;8.75;3.75;;;13.50;99.90;;;;;;5004353;28;20461;-78
2022/07/08 05:21:56;;;;;;;7.65;1.60;;;13.50;99.90;;;;;;5013446;28;20096;-78
2022/07/08 05:24:23;;;;;;;9.05;2.45;;;13.50;99.90;;;;;;5014454;28;20018;-78
2022/07/08 05:26:49;;;;;;;9.20;1.73;;;13.50;99.90;;;;;;5009629;28;20107;-78
2022/07/08 05:29:14;;;;;;;8.27;1.75;;;13.50;99.90;;;;;;5012495;28;20541;-78
2022/07/08 05:31:40;;;;;;;9.20;2.15;;;13.60;99.90;;;;;;5009922;28;20129;-79
2022/07/08 05:34:05;;;;;;;10.32;1.70;;;13.60;99.90;;;;;;5008266;28;20521;-79
2022/07/08 05:36:31;;;;;;;6.97;1.45;;;13.60;99.90;;;;;;5010826;28;20069;-78
2022/07/08 05:38:56;;;;;;;5.97;1.60;;;13.60;99.90;;;;;;5023989;28;20033;-78
2022/07/08 05:41:22;;;;;;;6.20;1.52;;;13.50;99.90;;;;;;5013931;28;20026;-78
2022/07/08 05:43:47;;;;;;;7.35;1.80;;;13.50;99.90;;;;;;5009242;28;20037;-79
2022/07/08 05:46:13;;;;;;;11.10;2.28;;;13.60;99.90;;;;;;5012380;28;20072;-78
2022/07/08 05:48:39;;;;;;;8.00;2.08;;;13.60;99.90;;;;;;5012345;28;20057;-78
2022/07/08 05:51:05;;;;;;;9.05;1.67;;;13.70;99.90;;;;;;5005096;28;20036;-78
2022/07/08 05:53:30;;;;;;;5.93;1.58;;;13.70;99.90;;;;;;5004753;28;20026;-77
2022/07/08 05:55:56;;;;;;;5.53;1.65;;;13.80;99.90;;;;;;5004655;28;20118;-78
2022/07/08 05:58:21;;;;;;;8.63;1.60;;;13.90;99.90;;;;;;5011734;28;20124;-77
2022/07/08 06:00:47;;;;;;;7.47;1.60;;;14.00;99.90;;;;;;5004082;28;20133;-78
2022/07/08 06:03:13;;;;;;;7.38;1.40;;;14.10;99.90;;;;;;5007534;28;20394;-78
2022/07/08 06:05:38;;;;;;;8.00;1.50;;;14.20;99.90;;;;;;5006216;28;20062;-78
2022/07/08 06:08:04;;;;;;;7.95;1.38;;;14.30;99.90;;;;;;5012503;28;20026;-78
2022/07/08 06:10:29;;;;;;;7.65;1.63;;;14.40;99.90;;;;;;5010984;28;20060;-78
2022/07/08 06:12:55;;;;;;;5.00;1.45;;;14.50;99.90;;;;;;5009788;28;20088;-78
2022/07/08 06:15:21;;;;;;;7.82;1.88;;;14.60;99.90;;;;;;5004566;28;20390;-79
2022/07/08 06:17:46;;;;;;;12.68;2.13;;;14.70;99.90;;;;;;5012105;28;20411;-78
2022/07/08 06:20:14;;;;;;;8.73;1.77;;;14.70;99.90;;;;;;5010403;28;20406;-78
2022/07/08 06:22:40;;;;;;;6.18;1.65;;;14.80;99.90;;;;;;5009172;28;20029;-79
2022/07/08 06:25:06;;;;;;;6.97;1.85;;;14.90;99.90;;;;;;5010432;28;20445;-78
2022/07/08 06:27:32;;;;;;;9.10;1.83;;;14.90;99.90;;;;;;5010663;28;20083;-77
2022/07/08 06:29:57;;;;;;;6.85;1.65;;;14.90;99.90;;;;;;5010625;28;20085;-78
2022/07/08 06:32:23;;;;;;;7.57;2.05;;;14.90;99.90;;;;;;5010626;28;20482;-77
2022/07/08 06:34:48;;;;;;;7.40;1.45;;;14.90;99.90;;;;;;5007764;28;20481;-77
2022/07/08 06:37:14;;;;;;;8.63;1.75;;;15.00;99.90;;;;;;5002042;28;20042;-78
2022/07/08 06:39:40;;;;;;;6.65;1.73;;;15.10;99.90;;;;;;5009214;28;20037;-77
2022/07/08 06:42:06;;;;;;;6.90;1.70;;;15.20;99.90;;;;;;5010251;28;20112;-77
2022/07/08 06:44:31;;;;;;;8.35;2.08;;;15.30;99.90;;;;;;5007802;28;20386;-77
2022/07/08 06:46:57;;;;;;;6.95;1.48;;;15.30;99.90;;;;;;5009888;28;20041;-77
2022/07/08 06:49:22;;;;;;;7.43;1.58;;;15.30;99.90;;;;;;5010005;28;20099;-77
2022/07/08 06:51:48;;;;;;;6.15;1.67;;;15.40;99.90;;;;;;5010091;28;20048;-78
2022/07/08 06:56:58;;;;;;;5.45;1.50;;;15.80;99.90;;;;;;5007999;28;20033;-78
2022/07/08 06:59:23;;;;;;;6.10;1.30;;;15.80;99.90;;;;;;5010616;28;20077;-78
2022/07/08 07:01:49;;;;;;;7.32;1.67;;;15.80;99.90;;;;;;5004633;28;20061;-78
2022/07/08 07:04:15;;;;;;;10.35;1.55;;;15.80;99.90;;;;;;5013708;28;20025;-77
2022/07/08 07:06:41;;;;;;;7.47;2.25;;;15.80;99.90;;;;;;5010610;28;20522;-77
2022/07/08 07:09:06;;;;;;;4.90;1.27;;;15.90;99.90;;;;;;5010149;28;20156;-77
2022/07/08 07:11:32;;;;;;;13.57;2.20;;;15.90;99.90;;;;;;5011429;28;20052;-78
2022/07/08 07:13:57;;;;;;;7.97;1.90;;;15.90;99.90;;;;;;5008120;28;20041;-77
2022/07/08 07:16:23;;;;;;;8.70;2.35;;;15.90;99.90;;;;;;5011700;28;20099;-77
2022/07/08 07:18:49;;;;;;;10.43;1.90;;;15.90;99.90;;;;;;5011849;28;20068;-78
2022/07/08 07:21:14;;;;;;;6.57;1.60;;;16.00;99.90;;;;;;5011835;28;20029;-78
2022/07/08 07:23:40;;;;;;;7.10;2.20;;;15.90;99.90;;;;;;5011549;28;20455;-78
2022/07/08 07:26:06;;;;;;;5.22;1.60;;;16.00;99.90;;;;;;5009132;28;20049;-78
2022/07/08 07:28:31;;;;;;;7.45;2.00;;;16.00;99.90;;;;;;5011639;28;20034;-78
2022/07/08 07:30:57;;;;;;;7.80;2.15;;;16.00;99.90;;;;;;5011101;28;20454;-78
2022/07/08 07:33:22;;;;;;;7.85;2.03;;;15.80;99.90;;;;;;5011269;28;20026;-78
2022/07/08 07:35:48;;;;;;;5.45;2.00;;;15.80;99.90;;;;;;5011204;28;20034;-77
2022/07/08 07:38:14;;;;;;;11.25;2.30;;;15.80;99.90;;;;;;5010963;28;20068;-77
2022/07/08 07:40:39;;;;;;;6.75;1.80;;;15.80;99.90;;;;;;5011376;28;20022;-77
2022/07/08 07:43:05;;;;;;;6.38;1.60;;;15.80;99.90;;;;;;5011414;28;20129;-77
2022/07/08 07:45:31;;;;;;;8.38;1.80;;;15.80;99.90;;;;;;5008316;28;20028;-78
2022/07/08 07:47:56;;;;;;;6.68;1.77;;;15.90;99.90;;;;;;5010896;28;20026;-78
2022/07/08 07:50:22;;;;;;;6.75;1.67;;;15.90;99.90;;;;;;5007297;28;20493;-78
2022/07/08 07:52:47;;;;;;;11.02;2.40;;;15.80;99.90;;;;;;5008553;28;20029;-77
2022/07/08 07:55:13;;;;;;;6.35;1.95;;;15.80;99.90;;;;;;5011438;28;20383;-77
2022/07/08 07:57:39;;;;;;;11.63;2.10;;;15.90;99.90;;;;;;5010457;28;20481;-77
2022/07/08 08:00:09;;;;;;;8.00;1.90;;;16.00;99.90;;;;;;5010751;28;20034;-77
2022/07/08 08:02:34;;;;;;;6.13;1.90;;;16.00;99.90;;;;;;5009945;28;20463;-78
2022/07/08 08:05:00;;;;;;;10.25;1.77;;;16.20;99.90;;;;;;5010289;28;20075;-77
2022/07/08 08:07:26;;;;;;;8.70;2.00;;;16.00;99.90;;;;;;5021158;28;20030;-77
2022/07/08 08:09:51;;;;;;;6.00;2.10;;;16.10;99.90;;;;;;5015336;28;20517;-78
2022/07/08 08:12:17;;;;;;;6.03;1.92;;;16.10;99.90;;;;;;5009082;28;20037;-77
2022/07/08 08:14:42;;;;;;;7.00;1.80;;;16.20;99.90;;;;;;5012282;28;20463;-78
2022/07/08 08:17:08;;;;;;;6.13;1.75;;;16.30;99.90;;;;;;5014118;28;20617;-77
2022/07/08 08:19:34;;;;;;;7.38;2.00;;;16.40;99.90;;;;;;5014514;28;20030;-78
2022/07/08 08:21:59;;;;;;;6.25;2.00;;;16.50;99.90;;;;;;5014988;28;20026;-77
2022/07/08 08:24:25;;;;;;;4.57;1.70;;;16.50;99.90;;;;;;5015184;28;20033;-77
2022/07/08 08:26:50;;;;;;;8.98;2.00;;;16.60;99.90;;;;;;5008333;28;20044;-78
2022/07/08 08:29:16;;;;;;;6.75;1.88;;;16.70;99.90;;;;;;5013185;28;20041;-78
2022/07/08 08:31:42;;;;;;;5.50;1.77;;;16.80;99.90;;;;;;5014910;28;20050;-78
2022/07/08 08:34:08;;;;;;;9.13;1.50;;;16.70;99.90;;;;;;5014597;28;20115;-78
2022/07/08 08:36:34;;;;;;;10.73;2.22;;;16.70;99.90;;;;;;5011984;28;20022;-78
2022/07/08 08:39:00;;;;;;;9.90;1.90;;;16.70;99.90;;;;;;5014702;28;20037;-78
2022/07/08 08:41:27;;;;;;;7.28;2.10;;;16.70;99.90;;;;;;5014661;28;20018;-78
2022/07/08 08:43:53;;;;;;;6.32;2.15;;;16.70;99.90;;;;;;5014517;28;20068;-77
2022/07/08 08:46:23;;;;;;;6.57;1.73;;;16.60;99.90;;;;;;5014020;28;20049;-77
2022/07/08 08:48:51;;;;;;;7.95;1.75;;;16.50;99.90;;;;;;5012591;28;20368;-78
2022/07/08 08:51:20;;;;;;;7.07;2.55;;;16.50;99.90;;;;;;5014134;28;20542;-78
2022/07/08 08:53:47;;;;;;;8.55;2.47;;;16.40;99.90;;;;;;5013800;28;20037;-78
2022/07/08 08:56:16;;;;;;;8.90;2.13;;;16.40;99.90;;;;;;5008284;28;20116;-78
2022/07/08 08:58:50;;;;;;;6.60;2.08;;;16.50;99.90;;;;;;5013761;28;20022;-78
2022/07/08 09:01:18;;;;;;;8.13;1.98;;;16.50;99.90;;;;;;5011986;28;20072;-71
2022/07/08 09:03:44;;;;;;;11.20;2.22;;;16.60;99.90;;;;;;5012955;28;20034;-70
2022/07/08 09:06:10;;;;;;;9.15;1.90;;;16.60;99.90;;;;;;5010400;28;20022;-70
2022/07/08 09:08:36;;;;;;;7.43;1.88;;;16.60;99.90;;;;;;5011903;28;20026;-70
2022/07/08 09:11:03;;;;;;;4.38;1.77;;;16.60;99.90;;;;;;5013183;28;20030;-71
2022/07/08 09:13:28;;;;;;;4.10;1.40;;;16.60;99.90;;;;;;5010592;28;20042;-71
2022/07/08 09:15:57;;;;;;;5.53;1.83;;;16.60;99.90;;;;;;5008620;28;20026;-71
2022/07/08 09:18:31;;;;;;;6.93;2.03;;;16.60;99.90;;;;;;5012828;28;20034;-70
2022/07/08 09:20:57;;;;;;;6.45;2.05;;;16.60;99.90;;;;;;5005622;28;20026;-78
2022/07/08 09:23:26;;;;;;;7.38;2.03;;;16.60;99.90;;;;;;5013613;28;20040;-78
2022/07/08 09:26:02;;;;;;;7.88;1.73;;;16.50;99.90;;;;;;5010929;28;20049;-77
2022/07/08 09:28:43;;;;;;;5.68;1.63;;;16.60;99.90;;;;;;5010559;28;20037;-78
2022/07/08 09:31:09;;;;;;;7.07;1.90;;;16.60;99.90;;;;;;5011724;28;20126;-78
2022/07/08 09:33:36;;;;;;;6.20;2.05;;;16.70;99.90;;;;;;5018034;28;20411;-77
2022/07/08 09:36:03;;;;;;;5.50;1.75;;;16.70;99.90;;;;;;5018282;28;20037;-77
2022/07/08 09:38:32;;;;;;;5.38;2.00;;;16.80;99.90;;;;;;5017570;28;20417;-78
2022/07/08 09:41:05;;;;;;;5.85;1.67;;;16.90;99.90;;;;;;5020306;28;20014;-77
2022/07/08 09:43:33;;;;;;;7.80;1.75;;;17.00;99.90;;;;;;5015472;28;20072;-77
2022/07/08 09:46:04;;;;;;;3.45;1.45;;;17.00;99.90;;;;;;5016983;28;20380;-77
2022/07/08 09:48:29;;;;;;;4.00;1.80;;;17.20;99.90;;;;;;5016840;28;20017;-77
2022/07/08 09:50:55;;;;;;;10.25;2.13;;;17.40;99.90;;;;;;5004819;28;20763;-78
2022/07/08 09:53:30;;;;;;;4.00;1.65;;;17.50;99.90;;;;;;5008294;28;20028;-71
2022/07/08 09:55:56;;;;;;;8.38;1.85;;;17.60;99.90;;;;;;5005855;28;20081;-78
2022/07/08 09:58:24;;;;;;;8.48;1.85;;;17.80;99.90;;;;;;5014176;28;20029;-77
2022/07/08 10:00:52;;;;;;;6.63;1.90;;;18.00;99.90;;;;;;5015869;28;20026;-78
2022/07/08 10:03:19;;;;;;;7.10;1.85;;;18.20;99.90;;;;;;5014371;28;20549;-78
2022/07/08 10:05:46;;;;;;;6.63;1.73;;;18.30;99.90;;;;;;5018938;28;20017;-79
2022/07/08 10:08:12;;;;;;;6.93;1.83;;;18.50;99.90;;;;;;5025954;28;20030;-79
2022/07/08 10:10:39;;;;;;;4.72;1.90;;;18.60;99.90;;;;;;5012000;28;20374;-79
2022/07/08 10:13:05;;;;;;;5.75;1.98;;;19.00;99.90;;;;;;5010076;28;20048;-79
2022/07/08 10:15:38;;;;;;;6.05;2.03;;;19.30;99.90;;;;;;5019409;28;20077;-79
2022/07/08 10:18:23;;;;;;;6.30;1.83;;;19.30;99.90;;;;;;5013397;28;20470;-79
2022/07/08 10:20:56;;;;;;;6.45;1.92;;;19.20;99.90;;;;;;5011597;28;20033;-79
2022/07/08 10:23:30;;;;;;;8.40;2.00;;;19.20;99.90;;;;;;5012271;28;20509;-79
2022/07/08 10:25:58;;;;;;;8.57;1.83;;;19.10;99.90;;;;;;4999018;28;20038;-79
2022/07/08 10:28:34;;;;;;;7.43;1.80;;;19.10;99.90;;;;;;5007504;28;20026;-79
2022/07/08 10:31:00;;;;;;;6.63;1.77;;;19.30;99.90;;;;;;5008690;28;20062;-76
2022/07/08 10:33:27;;;;;;;7.38;1.67;;;19.40;99.90;;;;;;5009715;28;20050;-79
2022/07/08 10:36:04;;;;;;;6.82;1.75;;;19.40;99.90;;;;;;5007294;28;20104;-73
2022/07/08 10:38:33;;;;;;;4.38;1.70;;;19.50;99.90;;;;;;5007963;28;20034;-73
2022/07/08 10:41:01;;;;;;;7.63;1.92;;;19.80;99.90;;;;;;5008118;28;20041;-72
2022/07/08 10:43:27;;;;;;;7.32;1.95;;;20.10;99.90;;;;;;5008417;28;20101;-72
2022/07/08 10:46:12;;;;;;;8.20;2.03;;;19.90;99.90;;;;;;5008160;28;20075;-72
2022/07/08 10:48:41;;;;;;;5.53;1.80;;;20.00;99.90;;;;;;5006548;28;20470;-72
2022/07/08 10:51:37;;;;;;;6.20;1.60;;;19.70;99.90;;;;;;5000933;28;20576;-72
2022/07/08 10:54:05;;;;;;;4.25;1.83;;;19.60;99.90;;;;;;4993601;28;20084;-73
2022/07/08 10:56:49;;;;;;;7.20;1.48;;;19.60;99.90;;;;;;5002517;28;20041;-72
2022/07/08 10:59:21;;;;;;;8.05;1.60;;;19.80;99.90;;;;;;5007887;28;20117;-72
2022/07/08 11:02:09;;;;;;;5.47;1.63;;;19.90;99.90;;;;;;5003635;28;20724;-72
2022/07/08 11:04:34;;;;;;;4.43;1.70;;;19.80;99.90;;;;;;5007717;28;20049;-73
2022/07/08 11:07:23;;;;;;;5.60;1.65;;;19.60;99.90;;;;;;5004082;28;20024;-73
2022/07/08 11:10:10;;;;;;;4.35;1.50;;;19.60;99.90;;;;;;5006167;28;20144;-73
2022/07/08 11:12:39;;;;;;;5.63;1.95;;;19.80;99.90;;;;;;5006607;28;20053;-72
2022/07/08 11:15:14;;;;;;;5.15;1.60;;;20.00;99.90;;;;;;5000433;28;20037;-73
2022/07/08 11:17:41;;;;;;;5.32;1.70;;;20.20;99.90;;;;;;5007128;28;20087;-72
2022/07/08 11:20:13;;;;;;;5.47;1.55;;;20.60;99.90;;;;;;5007107;28;20566;-73
2022/07/08 11:22:40;;;;;;;6.22;1.88;;;20.80;99.90;;;;;;5007497;28;20030;-73
2022/07/08 11:25:08;;;;;;;5.05;1.58;;;20.80;99.90;;;;;;5007451;28;20038;-73
2022/07/08 11:27:34;;;;;;;6.80;1.98;;;20.60;99.90;;;;;;5010749;28;20037;-72
2022/07/08 11:30:03;;;;;;;4.32;1.60;;;20.30;99.90;;;;;;5006127;28;20056;-72
2022/07/08 11:32:30;;;;;;;4.97;1.80;;;20.40;99.90;;;;;;5011612;28;20112;-72
2022/07/08 11:34:56;;;;;;;5.00;1.40;;;20.60;99.90;;;;;;5009135;28;20108;-72
2022/07/08 11:37:23;;;;;;;6.75;1.80;;;20.70;99.90;;;;;;5005805;28;20116;-72
2022/07/08 11:39:49;;;;;;;6.80;1.90;;;20.70;99.90;;;;;;5011594;28;20431;-72
2022/07/08 11:42:16;;;;;;;8.88;1.80;;;20.60;99.90;;;;;;5007874;28;20026;-72
2022/07/08 11:44:45;;;;;;;4.63;1.67;;;20.40;99.90;;;;;;5005880;28;20466;-72
2022/07/08 11:47:15;;;;;;;6.80;1.52;;;20.10;99.90;;;;;;5008640;28;20033;-72
2022/07/08 11:49:45;;;;;;;7.43;1.95;;;20.00;99.90;;;;;;5010179;28;21195;-73
2022/07/08 11:52:13;;;;;;;7.40;1.92;;;20.20;99.90;;;;;;5012760;28;20025;-73
2022/07/08 11:54:43;;;;;;;5.53;1.63;;;20.30;99.90;;;;;;5010921;28;20029;-72
2022/07/08 11:57:09;;;;;;;4.35;1.75;;;20.40;99.90;;;;;;5006465;28;20672;-72
2022/07/08 11:59:35;;;;;;;4.57;1.60;;;20.50;99.90;;;;;;5006214;28;20081;-72
2022/07/08 12:02:03;;;;;;;8.48;2.33;;;20.60;99.90;;;;;;5007816;28;20401;-72
2022/07/08 12:04:29;;;;;;;6.85;1.88;;;20.60;99.90;;;;;;5008517;28;20135;-72
2022/07/08 12:06:57;;;;;;;3.88;1.85;;;20.60;99.90;;;;;;5010426;28;20050;-73
2022/07/08 12:09:24;;;;;;;4.50;1.70;;;20.40;99.90;;;;;;5004216;28;20108;-72
2022/07/08 12:11:52;;;;;;;10.32;1.98;;;20.10;99.90;;;;;;5010682;28;20045;-72
2022/07/08 12:14:19;;;;;;;6.72;1.73;;;19.80;99.90;;;;;;5009182;28;20036;-72
2022/07/08 12:16:46;;;;;;;4.88;1.50;;;19.90;99.90;;;;;;5009661;28;20758;-73
2022/07/08 12:19:27;;;;;;;7.65;1.80;;;19.80;99.90;;;;;;5010754;28;20100;-71
2022/07/08 12:21:54;;;;;;;7.07;1.60;;;19.80;99.90;;;;;;5005498;28;20528;-73
2022/07/08 12:24:25;;;;;;;4.78;1.48;;;20.10;99.90;;;;;;5004911;28;20041;-71
2022/07/08 12:26:58;;;;;;;3.45;1.27;;;20.30;99.90;;;;;;5012392;28;20105;-71
2022/07/08 12:29:31;;;;;;;7.85;1.67;;;20.60;99.90;;;;;;5008824;28;20112;-80
2022/07/08 12:31:56;;;;;;;3.58;1.65;;;21.50;99.90;;;;;;5003752;28;20034;-71
2022/07/08 12:34:23;;;;;;;6.43;1.98;;;21.80;99.90;;;;;;5007292;28;20034;-71
2022/07/08 12:36:50;;;;;;;4.35;1.65;;;21.70;99.90;;;;;;5008865;28;20026;-71
2022/07/08 12:39:19;;;;;;;5.05;1.58;;;21.60;99.90;;;;;;5010069;28;20042;-72
2022/07/08 12:42:07;;;;;;;5.15;1.50;;;21.80;99.90;;;;;;5013080;28;20075;-72
2022/07/08 12:44:39;;;;;;;6.03;1.52;;;22.20;99.90;;;;;;5015217;28;20036;-72
2022/07/08 12:47:07;;;;;;;7.18;1.70;;;22.30;99.90;;;;;;5007857;28;20058;-71
2022/07/08 12:49:35;;;;;;;11.10;2.08;;;22.60;99.90;;;;;;5007228;28;20482;-72